• Join FlightAware (Why Join?)
  • Login
  • US Flag 
06:11AM EDT


 

Airport Tracker/Info


-or-


 

Live Flight TrackerFlight Track Log ✈ LXJ537 ✈ 05-May-2013 ✈ KUGN - KVRB

Flight Track Log - Related Links

Times and Time Zones

All times are in EDT time to prevent confusion due to time zone crossing. See the LXJ537 flight status page for this flight to view local times or setup timezone preferences in your user account.

Time Position Orientation Groundspeed Altitude Reporting Facility
EDT Latitude Longitude Course Direction KTS MPH feet Rate Location/Type
02:43PM 42.3833 -87.8500 167° South 252 290 3,000  Level Chicago TRACON
02:44PM 42.3617 -87.8617 202° Southwest 254 292 3,000 1,080 Level Chicago Center
02:45PM 42.3111 -87.9272 224° Southwest 276 318 4,500 3,720 Climbing Chicago Center
02:46PM 42.2372 -87.9958 215° Southwest 283 326 10,700 4,680 Climbing Chicago Center
02:47PM 42.1533 -87.9944 179° South 302 348 14,200 3,360 Climbing Chicago Center
02:48PM 42.0742 -87.9564 160° South 304 350 17,700 3,240 Climbing Chicago Center
02:49PM 41.8735 -87.7020 167° South  Level FlightAware Approximate
02:49PM 41.9925 -87.9094 157° South 316 364 20,900  Level Chicago Center
02:50PM 41.9058 -87.8558 155° Southeast 342 394 22,900 2,220 Climbing Chicago Center
02:51PM 41.8075 -87.7981 156° South 383 441 25,600 2,820 Climbing Chicago Center
02:52PM 41.6878 -87.7250 155° Southeast 393 452 28,800 2,820 Climbing Chicago Center
02:53PM 41.5836 -87.6639 156° South 404 465 31,500 2,460 Climbing Chicago Center
02:54PM 41.4800 -87.6036 156° South 405 466 34,000 2,040 Climbing Chicago Center
02:55PM 41.3736 -87.5636 164° South 400 460 35,800 960 Climbing Chicago Center
02:56PM 41.2628 -87.5444 173° South 399 459 36,100 60 Climbing Chicago Center
02:57PM 41.1519 -87.5211 171° South 402 463 36,000 -60 Descending Chicago Center
02:58PM 41.0219 -87.4856 168° South 399 459 36,000  Level Chicago Center
02:59PM 40.9136 -87.4558 168° South 398 458 36,000  Level Chicago Center
03:00PM 40.8042 -87.4294 170° South 401 461 36,000 960 Level Chicago Center
03:01PM 40.6975 -87.3997 168° South 393 452 38,000 1,560 Climbing Chicago Center
03:02PM 40.5928 -87.3722 169° South 386 444 39,300 1,080 Climbing Chicago Center
03:03PM 40.4822 -87.3428 169° South 401 461 40,300 780 Climbing Chicago Center
03:04PM 40.3639 -87.2944 163° South 416 479 41,000 300 Climbing Chicago Center
03:05PM 40.2522 -87.2400 160° South 428 493 41,000  Level Chicago Center
03:06PM 40.1181 -87.1728 159° South 431 496 41,000  Level Chicago Center
03:07PM 40.0528 -87.1244 150° Southeast 436 502 41,000  Level Indianapolis Center
03:08PM 39.9506 -87.0411 148° Southeast 436 502 41,000  Level Indianapolis Center
03:09PM 39.8494 -86.9578 148° Southeast 435 501 41,000  Level Indianapolis Center
03:10PM 39.7472 -86.8761 148° Southeast 435 501 41,000  Level Indianapolis Center
03:11PM 39.6456 -86.7928 148° Southeast 437 503 41,000  Level Indianapolis Center
03:12PM 39.5211 -86.6933 148° Southeast 442 509 41,000  Level Indianapolis Center
03:13PM 39.4178 -86.6100 148° Southeast 443 510 41,000  Level Indianapolis Center
03:14PM 39.3133 -86.5256 148° Southeast 446 513 41,000  Level Indianapolis Center
03:15PM 39.2092 -86.4419 148° Southeast 445 512 41,000  Level Indianapolis Center
03:16PM 39.1044 -86.3586 148° Southeast 446 513 41,000  Level Indianapolis Center
03:17PM 38.9781 -86.2572 148° Southeast 448 516 41,000  Level Indianapolis Center
03:18PM 38.8842 -86.1836 149° Southeast 445 512 41,000  Level Indianapolis Center
03:19PM 38.7778 -86.1008 149° Southeast 443 510 41,000  Level Indianapolis Center
03:20PM 38.6514 -86.0017 148° Southeast 440 506 41,000  Level Indianapolis Center
03:21PM 38.5461 -85.9189 148° Southeast 440 506 41,000  Level Indianapolis Center
03:22PM 38.4414 -85.8375 149° Southeast 437 503 41,000  Level Indianapolis Center
03:23PM 38.3364 -85.7564 149° Southeast 436 502 41,000  Level Indianapolis Center
03:25PM 38.2317 -85.6756 149° Southeast 437 503 41,000  Level Indianapolis Center
03:26PM 38.1253 -85.5939 149° Southeast 441 507 41,000  Level Indianapolis Center
03:27PM 38.0067 -85.5514 164° South 439 505 41,000  Level Indianapolis Center
03:28PM 37.8869 -85.5186 168° South 437 503 41,000  Level Indianapolis Center
03:29PM 37.7556 -85.4831 168° South 430 495 41,000  Level Indianapolis Center
03:30PM 37.6381 -85.4517 168° South 432 497 41,000  Level Indianapolis Center
03:31PM 37.5000 -85.4164 169° South 430 495 41,000  Level Indianapolis Center
03:32PM 37.3831 -85.3842 168° South 430 495 41,000  Level Indianapolis Center
03:33PM 37.2653 -85.3536 168° South 431 496 41,000  Level Indianapolis Center
03:34PM 37.1464 -85.3214 168° South 436 502 41,000  Level Indianapolis Center
03:35PM 37.0331 -85.2911 168° South 433 498 41,000  Level Indianapolis Center
03:36PM 36.8936 -85.2550 168° South 427 491 41,000  Level Indianapolis Center
03:37PM 36.7775 -85.2244 168° South 426 490 41,000  Level Indianapolis Center
03:38PM 36.6622 -85.1942 168° South 423 487 41,000  Level Indianapolis Center
03:39PM 36.5486 -85.1656 169° South 418 481 41,000  Level Indianapolis Center
03:40PM 36.4342 -85.1358 168° South 419 482 41,000  Level Indianapolis Center
03:41PM 36.3186 -85.1064 168° South 422 486 41,000  Level Indianapolis Center
03:42PM 36.1808 -85.0706 168° South 423 487 41,000  Level Indianapolis Center
03:43PM 36.0639 -85.0400 168° South 429 494 41,000  Level Indianapolis Center
03:43PM 36.0231 -85.0322 171° South 431 496 41,000  Level Atlanta Center
03:44PM 35.9044 -85.0000 168° South 431 496 41,000  Level Atlanta Center
03:45PM 35.7856 -84.9706 169° South 439 505 41,000  Level Atlanta Center
03:46PM 35.6669 -84.9411 169° South 433 498 41,000  Level Atlanta Center
03:47PM 35.5503 -84.9117 168° South 433 498 41,000  Level Atlanta Center
03:48PM 35.4317 -84.8797 168° South 433 498 41,000  Level Atlanta Center
03:49PM 35.3172 -84.8533 169° South 433 498 41,000  Level Atlanta Center
03:50PM 35.1983 -84.8242 169° South 433 498 41,000  Level Atlanta Center
03:51PM 35.0839 -84.7925 167° South 433 498 41,000  Level Atlanta Center
03:52PM 34.9672 -84.7661 169° South 428 493 41,000  Level Atlanta Center
03:53PM 34.8461 -84.7372 169° South 428 493 41,000  Level Atlanta Center
03:54PM 34.7317 -84.7086 168° South 428 493 41,000  Level Atlanta Center
03:55PM 34.6150 -84.6747 167° South 428 493 41,000  Level Atlanta Center
03:56PM 34.4942 -84.6461 169° South 435 501 41,000  Level Atlanta Center
03:57PM 34.3794 -84.6178 168° South 440 506 41,000  Level Atlanta Center
03:58PM 34.2647 -84.5892 168° South 435 501 41,000  Level Atlanta Center
03:59PM 34.1458 -84.5633 170° South 429 494 41,000  Level Atlanta Center
04:00PM 34.0269 -84.5350 169° South 435 501 41,000  Level Atlanta Center
04:01PM 33.9186 -84.5069 168° South 421 484 41,000  Level Atlanta Center
04:02PM 33.8039 -84.4814 170° South 421 484 41,000  Level Atlanta Center
04:03PM 33.6892 -84.4533 168° South 416 479 41,000  Level Atlanta Center
04:04PM 33.5808 -84.4003 158° South 410 472 41,000  Level Atlanta Center
04:05PM 33.4808 -84.3128 144° Southeast 437 503 41,100 660 Climbing Atlanta Center
04:06PM 33.3808 -84.2303 145° Southeast 437 503 42,400 900 Climbing Atlanta Center
04:07PM 33.2808 -84.1481 145° Southeast 437 503 43,000 300 Climbing Atlanta Center
04:08PM 33.1744 -84.0636 146° Southeast 449 517 43,000  Level Atlanta Center
04:09PM 33.0678 -83.9769 146° Southeast 459 528 43,000  Level Atlanta Center
04:10PM 32.9717 -83.9050 148° Southeast 459 528 43,000  Level Atlanta Center
04:11PM 32.8631 -83.8186 146° Southeast 464 534 43,000  Level Atlanta Center
04:13PM 32.6714 -83.6625 146° Southeast 462 532 43,000  Level Jacksonville Center
04:14PM 32.5697 -83.5828 147° Southeast 462 532 43,000  Level Jacksonville Center
04:15PM 32.4678 -83.4983 145° Southeast 450 518 43,000  Level Jacksonville Center
04:17PM 32.3374 -83.3988 147° Southeast  Level FlightAware Approximate
04:18PM 32.1578 -83.2583 147° Southeast 438 504 43,000  Level Jacksonville Center
04:20PM 32.0226 -83.1685 151° Southeast  Level Estimated
04:20PM 31.9492 -83.0958 151° Southeast 443 510 43,000  Level Jacksonville Center
04:21PM 31.8428 -83.0147 147° Southeast 448 516 43,000  Level Jacksonville Center
04:22PM 31.7364 -82.9317 146° Southeast 453 521 43,000  Level Jacksonville Center
04:23PM 31.6300 -82.8511 147° Southeast 453 521 43,000  Level Jacksonville Center
04:24PM 31.6613 -82.8850 147° Southeast  Level FlightAware Approximate
04:24PM 31.5464 -82.7853 146° Southeast 453 521 43,000  Level Jacksonville Center
04:25PM 31.4314 -82.6978 147° Southeast 459 528 43,000  Level Jacksonville Center
04:26PM 31.3269 -82.6225 148° Southeast 453 521 43,000  Level Jacksonville Center
04:27PM 31.2222 -82.5428 147° Southeast 453 521 43,000  Level Jacksonville Center
04:28PM 31.1156 -82.4631 147° Southeast 453 521 43,000  Level Jacksonville Center
04:29PM 31.0108 -82.3836 147° Southeast 453 521 43,000  Level Jacksonville Center
04:30PM 30.9042 -82.3042 147° Southeast 453 521 43,000  Level Jacksonville Center
04:31PM 30.7992 -82.2203 146° Southeast 453 521 43,000  Level Jacksonville Center
04:32PM 30.6903 -82.1414 148° Southeast 459 528 43,000  Level Jacksonville Center
04:33PM 30.5833 -82.0600 147° Southeast 459 528 43,000  Level Jacksonville Center
04:34PM 30.4656 -81.9647 145° Southeast 464 534 43,000 -120 Level Jacksonville Center
04:35PM 30.3586 -81.8864 148° Southeast 471 542 42,800 -1,140 Descending Jacksonville Center
04:37PM 30.2287 -81.7904 148° Southeast  Level FlightAware Approximate
04:37PM 30.1422 -81.7278 148° Southeast 459 528 39,700  Level Jacksonville Center
04:38PM 30.0350 -81.6522 149° Southeast 459 528 38,500 -900 Descending Jacksonville Center
04:39PM 29.9483 -81.5406 132° Southeast 447 514 38,000 -600 Descending Jacksonville Center
04:40PM 29.8800 -81.4050 120° Southeast 466 536 37,300 -1,020 Descending Jacksonville Center
04:41PM 29.8117 -81.2719 121° Southeast 478 550 36,000 -1,200 Descending Jacksonville Center
04:42PM 29.7267 -81.1586 131° Southeast 478 550 35,000 -600 Descending Jacksonville Center
04:43PM 29.6131 -81.0986 155° Southeast 451 519 34,800 -540 Descending Jacksonville Center
04:44PM 29.4914 -81.0578 164° South 436 502 34,000 -1,620 Descending Jacksonville Center
04:46PM 29.2500 -80.9792 164° South 452 520 30,100 -2,160 Descending Jacksonville Center
04:47PM 29.1431 -80.9431 164° South 452 520 27,600 -2,700 Descending Jacksonville Center
04:48PM 29.0236 -80.9075 165° South 452 520 24,800 -2,100 Descending Jacksonville Center
04:50PM 28.8317 -80.8464 164° South 421 484 22,000 -1,080 Descending Miami Center
04:51PM 28.7094 -80.8111 166° South 409 471 22,000 -720 Level Miami Center
04:52PM 28.6019 -80.7742 163° South 414 476 20,600 -1,500 Descending Miami Center
04:53PM 28.5025 -80.7447 165° South 409 471 19,100 -1,500 Descending Miami Center
04:54PM 28.3950 -80.7128 165° South 402 463 17,600 -1,620 Descending Miami Center
04:55PM 28.2814 -80.6733 163° South 402 463 15,900 -2,100 Descending Miami Center
04:56PM 28.1825 -80.6231 156° South 391 450 13,500 -2,520 Descending Miami Center
04:57PM 28.1003 -80.5708 151° Southeast 380 437 10,900 -1,800 Descending Miami Center
04:58PM 28.0183 -80.5094 147° Southeast 372 428 10,000 -1,440 Descending Miami Center
04:59PM 27.9386 -80.4503 147° Southeast 343 395 8,100 -2,520 Descending Miami Center
05:00PM 27.8708 -80.3989 146° Southeast 308 354 5,000 -2,880 Descending Miami Center
05:01PM 27.8025 -80.3733 162° South 273 314 2,400 -1,200 Descending Miami Center
05:03PM 27.6500 -80.4167 106° East  Level FlightAware Approximate
05:03PM 27.6858 -80.3650 106° East 224 258 1,400  Level Miami Center
05:04PM 27.6419 -80.3731 189° South 161 185 800 -660 Descending Miami Center
05:05PM 27.6494 -80.4039 285° West 92 106 100 -720 Descending Miami Center